CheckWX is a tool to help pilots better visualize weather data.  It is not intended as a substitute for an official pre-flight weather briefing.

16:20:48 UTC

KROC TAF
Greater Rochester International Airport
Rochester, New York, USA
KROC 141505Z 1415/1512 04007KT 3SM -RA BR OVC003 FM142200 30015KT 2SM -RASN BR OVC007 FM150000 29018KT 1/2SM SN OVC007 FM150300 28021G29KT 2SM -SHSN OVC007 FM150600 27021G30KT P6SM OVC015

Dec-14@
15:00 UTC

Dec-14 @ 15:00 UTC

Dec-14@
22:00 UTC

Dec-14 @ 22:00 UTC

KROC 141505Z 1415/1512 04007KT 3SM -RA BR OVC003
Wind
  • 040° at 7 KTS
Conditions
Light Rain, Mist
Cloud Levels
  • Overcast at 300' AGL

Dec-14@
22:00 UTC

Dec-14 @ 22:00 UTC

Dec-15@
00:00 UTC

Dec-15 @ 00:00 UTC

FM142200 30015KT 2SM -RASN BR OVC007

From

From Standard forecast or significant change

Wind
  • 300° at 15 KTS
Conditions
Light Rain, Light Snow, Mist
Cloud Levels
  • Overcast at 700' AGL

Dec-15@
00:00 UTC

Dec-15 @ 00:00 UTC

Dec-15@
03:00 UTC

Dec-15 @ 03:00 UTC

FM150000 29018KT 1/2SM SN OVC007

From

From Standard forecast or significant change

Wind
  • 290° at 18 KTS
Conditions
Snow
Cloud Levels
  • Overcast at 700' AGL

Dec-15@
03:00 UTC

Dec-15 @ 03:00 UTC

Dec-15@
06:00 UTC

Dec-15 @ 06:00 UTC

FM150300 28021G29KT 2SM -SHSN OVC007

From

From Standard forecast or significant change

Wind
  • 280° at 21 KTS
  • {Gusting to 29 KTS
Conditions
Light Snow
Cloud Levels
  • Overcast at 700' AGL

Dec-15@
06:00 UTC

Dec-15 @ 06:00 UTC

Dec-15@
12:00 UTC

Dec-15 @ 12:00 UTC

FM150600 27021G30KT P6SM OVC015

From

From Standard forecast or significant change

Wind
  • 270° at 21 KTS
  • {Gusting to 30 KTS
Cloud Levels
  • Overcast at 1,500' AGL